Time;durP1;ratioP1;P1;durP2;ratioP2;P2;SDS_P1;SDS_P2;PMS_P1;PMS_P2;Temp;Humidity;BMP_temperature;BMP_pressure;BME280_temperature;BME280_humidity;BME280_pressure;Samples;Min_cycle;Max_cycle;Signal;HPM_P1;HPM_P2
2022/06/11 00:01:22;;;;;;;5.35;3.28;;;23.30;89.80;;;;;;5066212;28;20132;-63
2022/06/11 00:03:49;;;;;;;5.03;2.80;;;23.00;88.20;;;;;;5055572;28;20491;-63
2022/06/11 00:06:15;;;;;;;7.80;2.65;;;23.20;91.00;;;;;;5056118;28;20056;-63
2022/06/11 00:08:41;;;;;;;8.85;3.80;;;23.40;91.20;;;;;;5037456;28;20122;-63
2022/06/11 00:11:07;;;;;;;5.45;2.72;;;23.10;91.10;;;;;;5082748;28;20053;-67
2022/06/11 00:13:33;;;;;;;6.07;3.13;;;23.10;91.00;;;;;;5044317;28;20049;-63
2022/06/11 00:16:01;;;;;;;5.60;3.05;;;23.00;89.30;;;;;;5037527;28;20053;-63
2022/06/11 00:18:27;;;;;;;5.20;3.15;;;23.20;89.50;;;;;;5062676;28;20048;-63
2022/06/11 00:20:53;;;;;;;6.57;3.63;;;22.90;91.00;;;;;;5078821;28;20105;-63
2022/06/11 00:23:19;;;;;;;5.75;2.85;;;23.00;89.30;;;;;;5073032;28;20275;-63
2022/06/11 00:25:44;;;;;;;5.85;3.00;;;23.10;89.50;;;;;;5074043;28;20445;-63
2022/06/11 00:28:10;;;;;;;7.40;3.25;;;23.20;91.00;;;;;;5074047;28;20059;-63
2022/06/11 00:30:36;;;;;;;7.85;3.70;;;23.00;91.00;;;;;;5049239;28;20429;-63
2022/06/11 00:33:06;;;;;;;6.05;3.63;;;23.10;91.20;;;;;;5037550;28;20060;-63
2022/06/11 00:35:33;;;;;;;6.15;2.83;;;23.10;89.60;;;;;;5055916;28;20123;-63
2022/06/11 00:37:58;;;;;;;5.88;3.10;;;23.20;91.00;;;;;;5056597;28;20040;-63
2022/06/11 00:40:25;;;;;;;8.07;3.08;;;23.40;91.00;;;;;;5072253;28;20452;-62
2022/06/11 00:42:51;;;;;;;5.93;3.03;;;23.40;91.10;;;;;;5076719;28;20083;-63
2022/06/11 00:45:23;;;;;;;7.63;3.25;;;23.30;91.10;;;;;;5074313;28;20080;-63
2022/06/11 00:47:53;;;;;;;;;;;23.10;88.20;;;;;;5058532;28;20041;-63
2022/06/11 00:50:29;;;;;;;5.40;2.67;;;23.30;91.10;;;;;;5073948;28;19966;-63
2022/06/11 00:52:55;;;;;;;5.50;2.92;;;23.30;91.00;;;;;;5042305;28;20061;-64
2022/06/11 00:55:31;;;;;;;5.25;2.85;;;23.20;91.10;;;;;;5075013;28;20458;-63
2022/06/11 00:58:09;;;;;;;6.97;2.83;;;23.10;91.00;;;;;;5081235;28;20036;-63
2022/06/11 01:00:41;;;;;;;6.00;2.72;;;23.20;91.10;;;;;;5071751;28;20083;-63
2022/06/11 01:03:08;;;;;;;5.57;3.05;;;23.10;89.70;;;;;;5067001;28;20122;-63
2022/06/11 01:05:36;;;;;;;6.63;2.80;;;23.20;91.20;;;;;;5072303;28;20124;-62
2022/06/11 01:08:14;;;;;;;4.80;2.63;;;23.40;89.90;;;;;;5073120;28;20050;-63
2022/06/11 01:10:51;;;;;;;4.47;2.58;;;23.00;90.90;;;;;;5057301;28;20493;-65
2022/06/11 01:13:36;;;;;;;5.72;2.28;;;23.00;90.90;;;;;;5031220;28;20102;-66
2022/06/11 01:16:10;;;;;;;5.97;2.92;;;23.10;90.90;;;;;;5057522;28;20126;-62
2022/06/11 01:18:54;;;;;;;5.65;2.47;;;23.10;90.90;;;;;;5068867;28;20106;-63
2022/06/11 01:21:38;;;;;;;5.72;2.60;;;23.10;88.30;;;;;;5073229;28;20063;-62
2022/06/11 01:24:29;;;;;;;8.20;2.28;;;22.90;90.90;;;;;;5068095;28;20498;-67
2022/06/11 01:27:07;;;;;;;4.47;2.10;;;23.20;90.90;;;;;;5062867;28;20045;-63
2022/06/11 01:29:37;;;;;;;6.10;2.38;;;23.10;90.90;;;;;;5036670;28;20056;-63
2022/06/11 01:32:27;;;;;;;7.40;2.45;;;23.10;90.90;;;;;;5036123;28;20095;-63
2022/06/11 01:35:16;;;;;;;5.10;2.05;;;23.00;90.90;;;;;;5050275;28;20052;-62
2022/06/11 01:37:54;;;;;;;6.25;2.35;;;22.80;90.80;;;;;;5051719;28;20052;-63
2022/06/11 01:40:35;;;;;;;4.70;2.45;;;23.00;90.90;;;;;;5054911;28;20037;-63
2022/06/11 01:43:19;;;;;;;5.15;2.47;;;23.10;90.20;;;;;;5040729;28;20051;-63
2022/06/11 01:45:46;;;;;;;4.82;2.30;;;22.90;90.80;;;;;;5057437;28;20056;-62
2022/06/11 01:48:19;;;;;;;5.38;2.47;;;23.10;90.80;;;;;;5036336;28;20047;-63
2022/06/11 01:51:09;;;;;;;6.88;2.38;;;22.80;90.70;;;;;;5020033;28;20056;-63
2022/06/11 01:54:01;;;;;;;5.85;2.40;;;22.90;89.30;;;;;;5035150;28;20131;-63
2022/06/11 01:56:45;;;;;;;5.28;2.08;;;22.90;90.70;;;;;;5006662;28;20064;-63
2022/06/11 01:59:32;;;;;;;5.88;2.22;;;23.10;90.80;;;;;;5022758;28;20115;-63
2022/06/11 02:02:12;;;;;;;4.22;2.10;;;23.20;87.90;;;;;;5011932;28;20050;-63
2022/06/11 02:04:53;;;;;;;5.82;2.10;;;23.00;90.70;;;;;;5011765;28;20142;-64
2022/06/11 02:07:24;;;;;;;6.03;2.20;;;22.90;90.70;;;;;;4990450;28;20049;-62
2022/06/11 02:10:34;;;;;;;7.28;2.13;;;22.60;90.70;;;;;;4998091;28;20049;-62
2022/06/11 02:13:09;;;;;;;6.20;2.60;;;22.80;87.60;;;;;;4991993;28;20051;-62
2022/06/11 02:15:44;;;;;;;6.03;2.00;;;23.00;90.70;;;;;;4992056;28;20058;-62
2022/06/11 02:18:13;;;;;;;4.85;1.85;;;22.90;89.10;;;;;;4964191;28;20057;-63
2022/06/11 02:21:00;;;;;;;5.63;2.42;;;22.60;88.10;;;;;;4976580;28;20058;-65
2022/06/11 02:23:37;;;;;;;5.15;1.95;;;22.70;88.80;;;;;;4991704;28;20057;-63
2022/06/11 02:26:06;;;;;;;4.72;1.92;;;22.60;90.70;;;;;;4975870;28;20104;-62
2022/06/11 02:28:33;;;;;;;5.68;2.00;;;22.90;89.00;;;;;;4970011;28;20046;-63
2022/06/11 02:31:01;;;;;;;8.15;2.65;;;22.60;90.60;;;;;;4975858;28;20095;-62
2022/06/11 02:33:28;;;;;;;6.53;2.25;;;22.80;88.80;;;;;;4985667;28;20054;-63
2022/06/11 02:36:00;;;;;;;4.50;2.00;;;22.80;90.50;;;;;;4979993;28;20096;-63
2022/06/11 02:38:27;;;;;;;4.35;1.95;;;22.80;87.20;;;;;;5013297;28;20075;-63
2022/06/11 02:41:13;;;;;;;4.57;1.95;;;22.90;90.60;;;;;;4997106;28;20049;-63
2022/06/11 02:43:39;;;;;;;4.57;2.00;;;22.80;87.30;;;;;;4992240;28;20057;-63
2022/06/11 02:48:51;;;;;;;7.10;2.08;;;22.50;87.30;;;;;;5063160;28;20045;-63
2022/06/11 02:51:18;;;;;;;5.30;2.22;;;22.60;90.50;;;;;;5069514;28;20052;-63
2022/06/11 02:53:44;;;;;;;4.70;2.08;;;22.70;90.50;;;;;;5057346;28;20391;-63
2022/06/11 02:56:10;;;;;;;5.00;2.00;;;22.60;88.40;;;;;;5057218;28;20041;-63
2022/06/11 02:58:35;;;;;;;3.95;1.95;;;22.90;90.50;;;;;;5056931;28;20094;-64
2022/06/11 03:01:01;;;;;;;6.88;2.00;;;22.70;88.30;;;;;;5081624;28;20398;-63
2022/06/11 03:03:27;;;;;;;4.97;1.98;;;22.80;90.50;;;;;;5072855;28;20080;-62
2022/06/11 03:05:53;;;;;;;4.47;1.88;;;22.70;90.50;;;;;;5076914;28;20501;-63
2022/06/11 03:08:18;;;;;;;4.50;1.95;;;22.60;90.40;;;;;;5071247;28;20510;-63
2022/06/11 03:10:44;;;;;;;6.57;2.15;;;;;;;;;;5066264;28;20402;-63
2022/06/11 03:13:10;;;;;;;4.43;1.83;;;22.60;90.40;;;;;;5070046;28;20504;-63
2022/06/11 03:15:36;;;;;;;5.45;2.15;;;22.70;90.40;;;;;;5075308;28;20052;-62
2022/06/11 03:18:02;;;;;;;26.65;2.33;;;22.70;88.00;;;;;;5059052;28;20559;-63
2022/06/11 03:20:29;;;;;;;5.40;2.10;;;22.60;90.40;;;;;;5072010;28;20432;-63
2022/06/11 03:22:55;;;;;;;6.65;1.90;;;22.80;88.20;;;;;;5062419;28;20033;-63
2022/06/11 03:25:21;;;;;;;6.75;2.05;;;22.60;88.00;;;;;;5052480;28;20107;-63
2022/06/11 03:27:47;;;;;;;5.47;2.08;;;22.60;90.40;;;;;;5055155;28;20462;-62
2022/06/11 03:30:14;;;;;;;6.95;2.17;;;22.70;88.10;;;;;;5056634;28;20059;-62
2022/06/11 03:32:40;;;;;;;5.60;2.20;;;22.60;90.30;;;;;;5061216;28;20040;-62
2022/06/11 03:35:06;;;;;;;4.35;1.88;;;22.50;87.80;;;;;;5059187;28;20085;-63
2022/06/11 03:37:32;;;;;;;8.88;2.13;;;22.40;90.20;;;;;;5058363;28;20117;-62
2022/06/11 03:39:58;;;;;;;6.05;2.05;;;22.70;90.30;;;;;;5075556;28;20049;-62
2022/06/11 03:42:23;;;;;;;6.63;2.40;;;22.60;87.70;;;;;;5050218;28;20079;-63
2022/06/11 03:44:49;;;;;;;5.38;1.95;;;22.60;90.30;;;;;;5056267;28;20048;-63
2022/06/11 03:47:15;;;;;;;5.03;2.10;;;22.60;90.40;;;;;;5058276;28;20049;-63
2022/06/11 03:49:41;;;;;;;5.78;1.98;;;22.60;87.90;;;;;;5058408;28;20051;-63
2022/06/11 03:52:06;;;;;;;7.35;2.17;;;22.40;90.20;;;;;;5073046;28;22030;-62
2022/06/11 03:54:32;;;;;;;6.88;1.90;;;22.60;90.20;;;;;;5073901;28;20047;-62
2022/06/11 03:56:58;;;;;;;6.00;2.15;;;22.40;87.50;;;;;;5075378;28;20032;-63
2022/06/11 03:59:24;;;;;;;6.20;2.08;;;22.80;90.30;;;;;;5069452;28;20080;-63
2022/06/11 04:01:50;;;;;;;5.20;2.13;;;22.60;90.40;;;;;;5088892;28;20532;-62
2022/06/11 04:04:16;;;;;;;7.45;2.20;;;22.70;90.20;;;;;;5068042;28;20135;-65
2022/06/11 04:06:45;;;;;;;4.55;1.83;;;22.80;90.30;;;;;;5053506;28;20045;-63
2022/06/11 04:09:14;;;;;;;5.63;1.90;;;22.40;87.10;;;;;;5021275;28;20049;-63
2022/06/11 04:11:40;;;;;;;8.27;2.35;;;22.70;90.10;;;;;;5021768;28;20052;-63
2022/06/11 04:14:05;;;;;;;6.97;2.33;;;22.80;87.60;;;;;;5072906;28;20451;-64
2022/06/11 04:16:39;;;;;;;4.60;2.10;;;22.60;90.00;;;;;;5065719;28;20594;-67
2022/06/11 04:19:07;;;;;;;6.80;2.30;;;22.80;87.90;;;;;;5021678;28;20049;-63
2022/06/11 04:21:33;;;;;;;7.38;2.40;;;22.60;87.60;;;;;;5037843;28;20409;-62
2022/06/11 04:23:59;;;;;;;5.03;2.10;;;22.90;90.00;;;;;;5037586;28;20100;-62
2022/06/11 04:26:32;;;;;;;6.78;2.10;;;23.00;87.40;;;;;;5065591;28;20092;-63
2022/06/11 04:28:59;;;;;;;8.30;2.15;;;22.90;90.00;;;;;;5057362;28;20044;-63
2022/06/11 04:31:25;;;;;;;5.60;2.30;;;23.00;90.10;;;;;;5057592;28;20065;-63
2022/06/11 04:33:50;;;;;;;6.95;2.33;;;22.90;90.00;;;;;;5047183;28;20047;-62
2022/06/11 04:36:17;;;;;;;4.60;1.83;;;22.90;89.90;;;;;;5065244;28;20123;-63
2022/06/11 04:38:43;;;;;;;7.43;2.70;;;22.90;89.90;;;;;;5075293;28;20461;-63
2022/06/11 04:41:08;;;;;;;6.38;2.47;;;23.10;87.20;;;;;;5057107;28;20076;-63
2022/06/11 04:43:34;;;;;;;6.63;2.33;;;23.10;89.80;;;;;;5053605;28;20091;-63
2022/06/11 04:46:01;;;;;;;6.78;2.45;;;23.10;89.80;;;;;;5043966;28;20044;-63
2022/06/11 04:48:26;;;;;;;4.80;2.15;;;22.90;86.90;;;;;;5071609;28;20120;-63
2022/06/11 04:50:52;;;;;;;5.32;2.22;;;22.90;89.40;;;;;;5055276;28;20080;-62
2022/06/11 04:53:18;;;;;;;5.43;1.90;;;23.40;89.60;;;;;;5055084;28;20044;-63
2022/06/11 04:55:45;;;;;;;5.75;2.17;;;;;;;;;;5037025;28;20112;-63
2022/06/11 04:58:11;;;;;;;5.72;1.95;;;23.70;88.80;;;;;;5070036;28;20071;-63
2022/06/11 05:00:37;;;;;;;7.25;2.25;;;23.70;86.00;;;;;;5072492;28;20079;-64
2022/06/11 05:03:03;;;;;;;7.95;2.53;;;23.60;85.30;;;;;;5054745;28;20074;-63
2022/06/11 05:05:29;;;;;;;6.68;2.30;;;;;;;;;;5036987;28;20175;-62
2022/06/11 05:07:56;;;;;;;7.78;2.75;;;24.00;83.20;;;;;;5049679;28;20037;-63
2022/06/11 05:10:23;;;;;;;6.53;2.33;;;24.50;86.80;;;;;;5056084;28;20513;-63
2022/06/11 05:12:49;;;;;;;6.03;2.65;;;24.40;84.40;;;;;;5073533;28;20509;-63
2022/06/11 05:15:15;;;;;;;7.90;2.63;;;24.40;84.00;;;;;;5056262;28;20095;-62
2022/06/11 05:17:41;;;;;;;7.57;2.50;;;24.50;83.30;;;;;;5072274;28;20106;-62
2022/06/11 05:20:07;;;;;;;6.38;2.67;;;24.50;83.20;;;;;;5062179;28;20473;-63
2022/06/11 05:22:33;;;;;;;6.70;2.33;;;24.80;82.70;;;;;;5040038;28;20071;-62
2022/06/11 05:24:58;;;;;;;5.22;2.30;;;25.10;83.00;;;;;;5063328;28;20048;-62
2022/06/11 05:27:24;;;;;;;6.93;2.25;;;25.00;82.60;;;;;;5056402;28;20037;-63
2022/06/11 05:29:59;;;;;;;8.90;2.90;;;25.20;82.60;;;;;;5072646;28;20043;-63
2022/06/11 05:32:27;;;;;;;8.45;2.92;;;25.00;80.90;;;;;;5073150;28;20532;-63
2022/06/11 05:34:53;;;;;;;9.48;3.22;;;25.10;82.40;;;;;;5074239;28;20448;-63
2022/06/11 05:37:19;;;;;;;6.30;2.90;;;25.40;82.10;;;;;;5073720;28;20048;-62
2022/06/11 05:39:46;;;;;;;7.95;2.90;;;25.50;82.10;;;;;;5071977;28;20044;-63
2022/06/11 05:42:12;;;;;;;7.63;2.78;;;24.80;81.70;;;;;;5043729;28;20041;-69
2022/06/11 05:44:38;;;;;;;7.45;3.10;;;25.30;81.90;;;;;;5062667;28;20102;-63
2022/06/11 05:47:04;;;;;;;6.60;3.00;;;25.20;81.30;;;;;;5036593;28;20057;-63
2022/06/11 05:49:34;;;;;;;7.88;3.17;;;25.40;81.50;;;;;;5072861;28;20051;-63
2022/06/11 05:52:01;;;;;;;9.68;2.85;;;25.40;81.50;;;;;;5056449;28;20055;-63
2022/06/11 05:54:30;;;;;;;7.65;3.25;;;25.30;81.30;;;;;;5043176;28;20045;-64
2022/06/11 05:56:56;;;;;;;7.45;3.10;;;25.40;81.10;;;;;;5073921;28;20045;-63
2022/06/11 05:59:26;;;;;;;6.88;3.03;;;25.50;80.80;;;;;;5064582;28;20045;-63
2022/06/11 06:01:52;;;;;;;7.20;3.38;;;25.60;80.90;;;;;;5070867;28;20036;-63
2022/06/11 06:04:18;;;;;;;8.45;3.33;;;25.70;80.80;;;;;;5067656;28;20501;-63
2022/06/11 06:06:44;;;;;;;10.35;3.10;;;25.70;80.20;;;;;;5073708;28;20037;-64
2022/06/11 06:09:10;;;;;;;9.88;3.60;;;25.90;80.40;;;;;;5073701;28;20051;-64
2022/06/11 06:11:35;;;;;;;8.98;3.45;;;25.80;80.30;;;;;;5071680;28;20064;-63
2022/06/11 06:14:01;;;;;;;8.23;3.28;;;25.60;79.80;;;;;;5071415;28;20430;-65
2022/06/11 06:16:29;;;;;;;9.23;3.10;;;25.80;79.80;;;;;;5056236;28;20111;-63
2022/06/11 06:18:55;;;;;;;9.68;3.00;;;25.80;80.00;;;;;;5052483;28;20133;-64
2022/06/11 06:21:22;;;;;;;9.43;3.17;;;25.80;79.80;;;;;;5053264;28;20041;-62
2022/06/11 06:23:48;;;;;;;8.63;3.17;;;25.70;80.00;;;;;;5053271;28;20407;-62
2022/06/11 06:26:14;;;;;;;9.60;3.45;;;25.60;79.70;;;;;;5053173;28;20044;-62
2022/06/11 06:28:41;;;;;;;9.30;3.67;;;25.90;79.80;;;;;;5072338;28;20048;-64
2022/06/11 06:31:07;;;;;;;11.10;3.25;;;25.80;79.80;;;;;;5073567;28;20075;-62
2022/06/11 06:33:33;;;;;;;10.45;3.88;;;25.80;79.80;;;;;;5064814;28;20394;-62
2022/06/11 06:35:59;;;;;;;13.82;5.20;;;25.80;79.90;;;;;;5067842;28;20059;-63
2022/06/11 06:38:25;;;;;;;12.32;4.57;;;25.90;82.60;;;;;;5045322;28;20052;-62
2022/06/11 06:40:51;;;;;;;11.80;4.13;;;25.70;79.50;;;;;;5069355;28;20040;-62
2022/06/11 06:43:17;;;;;;;12.65;4.00;;;25.50;79.20;;;;;;5066315;28;20037;-64
2022/06/11 06:45:42;;;;;;;10.88;3.85;;;25.70;79.60;;;;;;5068324;28;20056;-63
2022/06/11 06:48:08;;;;;;;12.13;4.65;;;25.80;79.50;;;;;;5072481;28;20049;-63
2022/06/11 06:50:34;;;;;;;10.43;3.47;;;25.50;79.50;;;;;;5058235;28;20117;-63
2022/06/11 06:53:00;;;;;;;13.60;4.05;;;25.70;79.40;;;;;;5072131;28;20115;-62
2022/06/11 06:55:25;;;;;;;12.90;3.90;;;25.60;79.60;;;;;;5055013;28;20048;-62
2022/06/11 06:57:51;;;;;;;13.45;4.28;;;25.50;79.20;;;;;;5071658;28;20028;-62
2022/06/11 07:00:18;;;;;;;14.40;4.53;;;25.80;79.70;;;;;;5071875;28;20403;-62
2022/06/11 07:02:44;;;;;;;10.45;3.55;;;25.50;78.90;;;;;;5055307;28;20049;-62
2022/06/11 07:05:12;;;;;;;13.55;4.07;;;25.70;79.50;;;;;;5056673;28;20445;-63
2022/06/11 07:07:38;;;;;;;13.73;3.97;;;25.50;79.50;;;;;;5060938;28;20110;-63
2022/06/11 07:10:04;;;;;;;13.38;4.13;;;25.70;79.60;;;;;;5037331;28;20041;-62
2022/06/11 07:12:30;;;;;;;9.80;3.38;;;25.60;78.90;;;;;;5072810;28;20041;-62
2022/06/11 07:14:56;;;;;;;10.63;4.05;;;25.50;79.20;;;;;;5072852;28;20131;-62
2022/06/11 07:17:21;;;;;;;16.48;3.88;;;25.50;78.80;;;;;;5054717;28;20048;-62
2022/06/11 07:19:54;;;;;;;13.23;3.90;;;25.60;79.30;;;;;;5048719;28;20045;-62
2022/06/11 07:22:32;;;;;;;10.00;3.70;;;25.40;79.50;;;;;;5003857;28;20375;-62
2022/06/11 07:25:01;;;;;;;14.40;4.25;;;25.60;78.00;;;;;;5056327;28;20044;-62
2022/06/11 07:27:28;;;;;;;13.02;3.67;;;25.80;79.70;;;;;;5058980;28;20040;-63
2022/06/11 07:29:59;;;;;;;14.85;4.07;;;25.70;79.30;;;;;;5066657;28;20056;-62
2022/06/11 07:32:25;;;;;;;12.25;3.78;;;25.80;79.50;;;;;;5060304;28;20056;-62
2022/06/11 07:34:51;;;;;;;22.10;5.30;;;25.60;79.10;;;;;;5055093;28;20414;-63
2022/06/11 07:37:17;;;;;;;15.20;4.32;;;25.90;78.90;;;;;;5054893;28;20041;-62
2022/06/11 07:39:43;;;;;;;13.95;3.97;;;25.80;79.20;;;;;;5059171;28;20047;-62
2022/06/11 07:42:10;;;;;;;13.18;4.03;;;25.80;79.20;;;;;;5056983;28;20052;-63
2022/06/11 07:44:36;;;;;;;12.77;4.35;;;25.80;79.10;;;;;;5070105;28;20036;-63
2022/06/11 07:47:03;;;;;;;12.27;3.92;;;25.90;78.70;;;;;;5074854;28;20464;-62
2022/06/11 07:49:29;;;;;;;12.35;4.15;;;25.90;78.70;;;;;;5075001;28;20047;-62
2022/06/11 07:51:55;;;;;;;13.48;4.55;;;26.10;78.40;;;;;;5078629;28;20458;-62
2022/06/11 07:54:20;;;;;;;13.73;4.28;;;26.30;79.50;;;;;;5074770;28;20055;-63
2022/06/11 07:56:46;;;;;;;12.27;4.15;;;26.10;78.50;;;;;;5074676;28;20075;-63
2022/06/11 07:59:12;;;;;;;10.05;3.85;;;26.20;78.70;;;;;;5037982;28;20072;-62
2022/06/11 08:01:38;;;;;;;11.43;4.28;;;26.10;78.40;;;;;;5062591;28;20133;-62
2022/06/11 08:04:04;;;;;;;12.25;4.30;;;26.40;78.80;;;;;;5075611;28;20049;-62
2022/06/11 08:06:31;;;;;;;13.30;4.85;;;26.20;78.30;;;;;;5074747;28;20036;-62
2022/06/11 08:08:57;;;;;;;16.10;4.30;;;26.40;78.60;;;;;;5074753;28;20028;-62
2022/06/11 08:11:23;;;;;;;10.52;3.65;;;26.30;78.60;;;;;;5056364;28;20474;-62
2022/06/11 08:13:49;;;;;;;12.07;4.28;;;26.50;78.50;;;;;;5066101;28;20049;-62
2022/06/11 08:16:15;;;;;;;13.00;3.70;;;26.60;78.70;;;;;;5072616;28;20063;-62
2022/06/11 08:18:40;;;;;;;13.77;4.38;;;26.40;78.20;;;;;;5055902;28;20186;-62
2022/06/11 08:21:07;;;;;;;12.63;4.30;;;26.30;77.90;;;;;;5073091;28;20429;-63
2022/06/11 08:23:33;;;;;;;9.15;3.78;;;26.40;78.30;;;;;;5074175;28;20044;-62
2022/06/11 08:25:59;;;;;;;12.38;4.03;;;26.80;78.60;;;;;;5074424;28;20040;-63
2022/06/11 08:28:26;;;;;;;12.38;3.92;;;26.50;78.10;;;;;;5065678;28;20060;-62
2022/06/11 08:30:51;;;;;;;10.02;4.07;;;26.50;78.30;;;;;;5071115;28;20402;-62
2022/06/11 08:33:20;;;;;;;9.73;3.28;;;26.70;78.10;;;;;;5036721;28;20059;-62
2022/06/11 08:35:46;;;;;;;9.40;3.95;;;27.10;78.70;;;;;;5037209;28;20065;-62
2022/06/11 08:38:12;;;;;;;10.02;3.88;;;26.80;78.10;;;;;;5059061;28;20045;-63
2022/06/11 08:40:46;;;;;;;11.75;3.70;;;27.20;78.60;;;;;;5037190;28;20083;-62
2022/06/11 08:43:33;;;;;;;10.85;4.20;;;26.70;77.10;;;;;;5053780;28;20048;-63
2022/06/11 08:46:23;;;;;;;11.93;4.25;;;26.60;77.10;;;;;;5036695;28;20064;-62
2022/06/11 08:49:31;;;;;;;13.05;3.83;;;26.80;78.80;;;;;;5062644;28;20047;-63
2022/06/11 08:52:12;;;;;;;11.52;4.15;;;26.60;77.50;;;;;;5032944;28;20057;-62
2022/06/11 08:54:41;;;;;;;10.38;4.20;;;26.40;77.30;;;;;;5002122;28;20399;-62
2022/06/11 08:57:18;;;;;;;12.10;4.38;;;26.50;78.90;;;;;;5000075;28;20088;-62
2022/06/11 09:00:09;;;;;;;11.52;4.03;;;26.60;77.60;;;;;;5031358;28;20056;-64
2022/06/11 09:02:38;;;;;;;11.02;3.60;;;26.50;77.60;;;;;;5016580;28;20123;-62
2022/06/11 09:05:31;;;;;;;10.88;3.70;;;26.30;78.80;;;;;;5015083;28;20049;-62
2022/06/11 09:08:08;;;;;;;11.75;4.10;;;26.40;77.50;;;;;;5016163;28;20041;-62
2022/06/11 09:10:45;;;;;;;14.10;4.00;;;26.70;79.00;;;;;;5030294;28;20539;-62
2022/06/11 09:13:30;;;;;;;10.90;3.72;;;26.40;77.40;;;;;;5032418;28;20498;-62
2022/06/11 09:16:09;;;;;;;10.90;3.97;;;26.60;77.60;;;;;;5015760;28;20049;-62
2022/06/11 09:19:08;;;;;;;13.45;4.43;;;26.40;79.20;;;;;;5014065;28;20180;-62
2022/06/11 09:21:43;;;;;;;14.85;4.10;;;26.40;77.60;;;;;;5013014;28;20057;-62
2022/06/11 09:24:19;;;;;;;11.15;3.53;;;26.50;77.60;;;;;;5012442;28;20053;-62
2022/06/11 09:26:48;;;;;;;13.15;4.20;;;26.30;77.20;;;;;;5022499;28;20548;-62
2022/06/11 09:29:23;;;;;;;15.98;4.25;;;26.50;78.90;;;;;;5051493;28;20059;-62
2022/06/11 09:32:15;;;;;;;13.45;4.18;;;26.50;78.80;;;;;;5065089;28;20040;-63
2022/06/11 09:34:48;;;;;;;13.40;4.15;;;26.40;77.30;;;;;;5073881;28;20079;-62
2022/06/11 09:37:44;;;;;;;11.00;3.75;;;26.40;78.70;;;;;;5074106;28;20049;-63
2022/06/11 09:40:31;;;;;;;10.23;3.88;;;26.70;77.20;;;;;;5038243;28;20143;-63
2022/06/11 09:43:21;;;;;;;13.90;3.78;;;26.50;77.40;;;;;;5044252;28;20057;-63
2022/06/11 09:46:02;;;;;;;12.10;4.32;;;26.70;77.50;;;;;;5033988;28;20093;-63
2022/06/11 09:48:30;;;;;;;12.98;3.90;;;26.50;77.20;;;;;;5045684;28;20037;-63
2022/06/11 09:51:27;;;;;;;9.57;3.15;;;26.60;78.60;;;;;;5024284;28;20452;-62
2022/06/11 09:54:04;;;;;;;11.93;3.65;;;26.50;77.60;;;;;;5044159;28;20086;-63
2022/06/11 09:56:36;;;;;;;10.68;3.60;;;26.60;77.60;;;;;;5028018;28;20104;-63
2022/06/11 09:59:21;;;;;;;13.35;3.85;;;26.40;78.80;;;;;;5018452;28;20530;-63
2022/06/11 10:02:01;;;;;;;15.43;4.55;;;26.60;77.30;;;;;;5035104;28;20049;-63
2022/06/11 10:04:29;;;;;;;13.30;4.47;;;26.50;77.60;;;;;;5014163;28;20091;-63
2022/06/11 10:07:02;;;;;;;14.73;3.70;;;26.30;78.80;;;;;;5034717;28;20552;-63
2022/06/11 10:09:38;;;;;;;13.32;3.88;;;26.10;78.60;;;;;;5030598;28;20053;-64
2022/06/11 10:12:23;;;;;;;14.07;3.90;;;26.40;77.30;;;;;;5032879;28;20049;-63
2022/06/11 10:14:53;;;;;;;16.00;3.65;;;26.40;77.20;;;;;;5040892;28;20132;-63
2022/06/11 10:17:29;;;;;;;14.63;4.07;;;26.40;78.80;;;;;;5032048;28;20076;-64
2022/06/11 10:20:02;;;;;;;13.73;3.63;;;26.00;76.70;;;;;;5035876;28;20037;-63
2022/06/11 10:22:52;;;;;;;14.93;4.32;;;26.00;76.80;;;;;;5073813;28;20057;-63
2022/06/11 10:25:27;;;;;;;12.75;3.88;;;26.30;77.20;;;;;;5070364;28;20085;-63
2022/06/11 10:28:24;;;;;;;10.23;3.38;;;26.10;78.20;;;;;;5068851;28;20406;-63
2022/06/11 10:30:59;;;;;;;11.23;3.65;;;26.00;76.70;;;;;;5040891;28;20060;-63
2022/06/11 10:33:35;;;;;;;13.00;3.17;;;26.10;76.70;;;;;;5039385;28;20040;-63
2022/06/11 10:36:23;;;;;;;11.15;4.10;;;25.90;76.30;;;;;;5070462;28;20145;-63
2022/06/11 10:39:11;;;;;;;12.73;3.30;;;26.10;77.90;;;;;;5069743;28;20189;-63
2022/06/11 10:41:46;;;;;;;11.45;3.38;;;26.30;77.70;;;;;;5072264;28;20052;-64
2022/06/11 10:44:37;;;;;;;10.25;3.08;;;25.90;76.20;;;;;;5073099;28;20056;-64
2022/06/11 10:47:21;;;;;;;12.05;3.30;;;26.20;76.70;;;;;;5065545;28;20044;-65
2022/06/11 10:50:17;;;;;;;14.70;3.30;;;26.20;77.90;;;;;;5040085;28;20044;-64
2022/06/11 10:53:17;;;;;;;10.43;3.17;;;26.20;76.10;;;;;;5042910;28;20388;-66
2022/06/11 10:56:11;;;;;;;11.45;2.90;;;25.90;76.00;;;;;;5035453;28;20049;-63
2022/06/11 10:58:45;;;;;;;9.43;2.95;;;26.00;77.50;;;;;;4959590;28;20412;-64
2022/06/11 11:01:27;;;;;;;9.88;3.35;;;26.10;76.90;;;;;;4946038;28;20053;-64
2022/06/11 11:03:57;;;;;;;12.60;3.28;;;26.20;77.90;;;;;;4988640;28;20409;-64
2022/06/11 11:06:26;;;;;;;10.27;2.90;;;26.10;77.80;;;;;;4975903;28;20093;-65
2022/06/11 11:09:12;;;;;;;10.70;2.70;;;25.90;77.50;;;;;;4983640;28;20123;-64
2022/06/11 11:12:00;;;;;;;12.20;3.03;;;25.90;76.00;;;;;;4976734;28;20049;-64
2022/06/11 11:14:39;;;;;;;9.13;2.70;;;26.00;76.00;;;;;;4993450;28;20054;-64
2022/06/11 11:17:06;;;;;;;10.48;3.13;;;25.80;75.90;;;;;;4959073;28;20046;-65
2022/06/11 11:19:33;;;;;;;12.25;3.95;;;26.00;77.30;;;;;;4975866;28;20142;-65
2022/06/11 11:22:05;;;;;;;9.05;3.10;;;26.00;77.30;;;;;;4977865;28;20051;-66
2022/06/11 11:24:34;;;;;;;9.63;2.83;;;26.10;77.10;;;;;;4995098;28;20133;-66
2022/06/11 11:27:18;;;;;;;8.73;3.00;;;26.00;77.30;;;;;;4976218;28;20051;-68
2022/06/11 11:29:56;;;;;;;7.57;2.92;;;26.00;75.80;;;;;;4995271;28;20061;-64
2022/06/11 11:32:33;;;;;;;8.77;2.67;;;26.30;76.20;;;;;;4974239;28;20073;-64
2022/06/11 11:35:14;;;;;;;10.93;3.13;;;25.90;75.70;;;;;;4974521;28;20061;-64
2022/06/11 11:37:40;;;;;;;10.60;3.55;;;26.10;77.10;;;;;;5056426;28;20045;-67
2022/06/11 11:40:22;;;;;;;10.57;2.90;;;26.30;77.10;;;;;;5076248;28;20063;-64
2022/06/11 11:42:54;;;;;;;8.45;2.65;;;26.10;77.30;;;;;;5074823;28;20045;-64
2022/06/11 11:45:28;;;;;;;10.35;2.80;;;26.10;77.20;;;;;;5058153;28;20394;-64
2022/06/11 11:48:04;;;;;;;9.77;2.40;;;26.10;77.40;;;;;;5042020;28;20105;-64
2022/06/11 11:50:32;;;;;;;16.67;3.65;;;26.00;77.00;;;;;;5076328;28;20090;-64
2022/06/11 11:53:17;;;;;;;8.90;2.90;;;25.90;77.20;;;;;;5039699;28;20076;-64
2022/06/11 11:55:43;;;;;;;8.43;2.67;;;26.10;77.40;;;;;;5073689;28;20437;-65
2022/06/11 11:58:17;;;;;;;11.25;3.10;;;25.80;76.50;;;;;;5071104;28;20056;-64
2022/06/11 12:00:49;;;;;;;9.65;2.97;;;26.20;77.50;;;;;;5034784;28;20049;-63
2022/06/11 12:03:34;;;;;;;8.65;2.90;;;26.20;76.90;;;;;;5080801;28;20072;-63
2022/06/11 12:06:00;;;;;;;8.02;2.72;;;26.20;77.50;;;;;;5059089;28;20375;-63
2022/06/11 12:08:30;;;;;;;10.00;2.60;;;26.20;77.00;;;;;;5056814;28;20098;-62
2022/06/11 12:10:58;;;;;;;9.93;3.08;;;26.10;75.80;;;;;;5016199;28;20414;-63
2022/06/11 12:13:30;;;;;;;7.95;2.55;;;26.00;77.40;;;;;;5029236;28;20045;-62
2022/06/11 12:15:58;;;;;;;10.43;2.80;;;26.30;77.60;;;;;;5074697;28;20052;-63
2022/06/11 12:18:45;;;;;;;12.38;2.83;;;26.10;77.10;;;;;;5073457;28;20059;-63
2022/06/11 12:21:19;;;;;;;11.00;2.45;;;26.10;77.40;;;;;;5070307;28;20040;-63
2022/06/11 12:24:07;;;;;;;9.85;2.60;;;26.20;75.90;;;;;;5056222;28;20137;-62
2022/06/11 12:26:39;;;;;;;10.18;3.05;;;26.20;76.00;;;;;;5062447;28;20399;-62
2022/06/11 12:29:07;;;;;;;11.43;3.30;;;26.20;77.70;;;;;;5069078;28;20049;-62
2022/06/11 12:31:33;;;;;;;8.10;2.47;;;26.20;77.40;;;;;;5040520;28;20436;-62
2022/06/11 12:33:59;;;;;;;10.60;3.10;;;26.20;76.90;;;;;;5075538;28;20041;-63
2022/06/11 12:36:34;;;;;;;8.23;2.53;;;26.20;77.00;;;;;;5055481;28;20036;-63
2022/06/11 12:39:30;;;;;;;8.98;2.78;;;26.10;75.60;;;;;;5041465;28;20564;-63
2022/06/11 12:42:08;;;;;;;11.93;2.45;;;25.90;75.60;;;;;;5074624;28;20149;-62
2022/06/11 12:44:56;;;;;;;10.32;2.75;;;26.10;77.10;;;;;;5056992;28;20063;-62
2022/06/11 12:47:29;;;;;;;9.95;2.90;;;26.20;75.60;;;;;;5046162;28;20041;-62
2022/06/11 12:50:09;;;;;;;8.93;2.20;;;26.20;77.80;;;;;;5055271;28;20049;-63
2022/06/11 12:53:00;;;;;;;9.98;2.85;;;26.00;75.90;;;;;;5038262;28;20045;-63
2022/06/11 12:55:45;;;;;;;9.82;2.97;;;26.10;76.40;;;;;;5052293;28;20375;-62
2022/06/11 12:58:13;;;;;;;9.40;2.70;;;26.10;75.90;;;;;;5073290;28;20044;-63
2022/06/11 13:01:00;;;;;;;9.25;2.65;;;25.90;77.20;;;;;;5074952;28;20064;-63
2022/06/11 13:03:36;;;;;;;10.15;2.80;;;26.10;76.10;;;;;;5069764;28;20109;-67
2022/06/11 13:06:22;;;;;;;14.98;3.20;;;26.00;77.50;;;;;;5039761;28;20406;-63
2022/06/11 13:09:09;;;;;;;12.13;3.10;;;25.90;77.20;;;;;;5074285;28;20112;-63
2022/06/11 13:11:41;;;;;;;11.63;2.78;;;25.70;75.70;;;;;;5074765;28;20044;-62